Time;durP1;ratioP1;P1;durP2;ratioP2;P2;SDS_P1;SDS_P2;PMS_P1;PMS_P2;Temp;Humidity;BMP_temperature;BMP_pressure;BME280_temperature;BME280_humidity;BME280_pressure;Samples;Min_cycle;Max_cycle;Signal;HPM_P1;HPM_P2
2021/08/28 00:02:04;;;;;;;7.47;5.40;;;14.60;99.90;;;;;;5052072;28;20203;-89
2021/08/28 00:04:33;;;;;;;5.70;4.83;;;14.60;99.90;;;;;;5052967;28;20179;-88
2021/08/28 00:06:58;;;;;;;5.80;4.40;;;14.60;99.90;;;;;;5050014;28;20203;-88
2021/08/28 00:09:24;;;;;;;7.30;4.57;;;14.60;99.90;;;;;;5052761;28;20469;-88
2021/08/28 00:11:50;;;;;;;6.17;5.57;;;14.60;99.90;;;;;;5050892;28;20661;-87
2021/08/28 00:14:16;;;;;;;5.80;5.30;;;14.60;99.90;;;;;;5051527;28;20271;-87
2021/08/28 00:16:41;;;;;;;6.10;4.93;;;14.50;99.90;;;;;;5048360;28;20238;-89
2021/08/28 00:19:07;;;;;;;5.20;4.70;;;14.50;99.90;;;;;;5032941;28;20171;-87
2021/08/28 00:21:34;;;;;;;4.70;4.00;;;14.50;99.90;;;;;;5031640;28;20187;-87
2021/08/28 00:24:01;;;;;;;4.93;4.43;;;14.50;99.90;;;;;;5048500;28;20178;-87
2021/08/28 00:26:27;;;;;;;7.33;4.40;;;14.50;99.90;;;;;;5052780;28;20553;-87
2021/08/28 00:28:53;;;;;;;6.30;5.70;;;14.50;99.90;;;;;;5051390;28;20488;-87
2021/08/28 00:31:18;;;;;;;6.17;5.47;;;14.50;99.90;;;;;;5052244;28;20542;-86
2021/08/28 00:33:44;;;;;;;5.90;5.07;;;14.50;99.90;;;;;;5052042;28;20174;-88
2021/08/28 00:36:10;;;;;;;5.20;4.67;;;14.50;99.90;;;;;;5052033;28;20198;-89
2021/08/28 00:38:35;;;;;;;6.83;4.93;;;14.40;99.90;;;;;;5052906;28;20190;-88
2021/08/28 00:41:01;;;;;;;6.27;4.87;;;14.40;99.90;;;;;;5051064;28;20174;-87
2021/08/28 00:43:30;;;;;;;6.93;4.77;;;14.40;99.90;;;;;;5051039;28;20573;-87
2021/08/28 00:45:56;;;;;;;5.60;4.97;;;14.40;99.90;;;;;;5049652;28;20697;-87
2021/08/28 00:48:21;;;;;;;6.00;4.70;;;14.30;99.90;;;;;;5050967;28;20429;-87
2021/08/28 00:50:47;;;;;;;6.03;5.03;;;14.30;99.90;;;;;;5053072;28;20182;-87
2021/08/28 00:53:15;;;;;;;6.63;5.10;;;14.40;99.90;;;;;;5053405;28;20670;-87
2021/08/28 00:55:45;;;;;;;5.80;5.20;;;14.40;99.90;;;;;;5052798;28;20541;-87
2021/08/28 00:58:10;;;;;;;5.37;4.73;;;14.40;99.90;;;;;;5051039;28;20420;-85
2021/08/28 01:00:48;;;;;;;5.80;5.30;;;14.40;99.90;;;;;;5050646;28;20512;-86
2021/08/28 01:03:19;;;;;;;4.70;4.10;;;14.40;99.90;;;;;;5053094;28;20252;-85
2021/08/28 01:06:05;;;;;;;5.47;4.97;;;14.40;99.90;;;;;;5052143;28;20405;-84
2021/08/28 01:08:45;;;;;;;6.90;6.20;;;14.40;99.90;;;;;;5050510;28;20425;-86
2021/08/28 01:11:37;;;;;;;8.77;6.20;;;14.30;99.90;;;;;;5048595;28;20575;-86
2021/08/28 01:14:20;;;;;;;6.17;5.47;;;14.30;99.90;;;;;;5051382;28;20872;-88
2021/08/28 01:16:50;;;;;;;8.87;6.27;;;14.20;99.90;;;;;;5048029;28;20429;-85
2021/08/28 01:19:30;;;;;;;8.10;6.10;;;14.30;99.90;;;;;;5051703;28;20416;-85
2021/08/28 01:21:56;;;;;;;8.73;6.00;;;14.30;99.90;;;;;;5052087;28;20824;-86
2021/08/28 01:24:22;;;;;;;7.37;6.67;;;14.40;99.90;;;;;;5052262;28;20400;-86
2021/08/28 01:27:17;;;;;;;6.87;6.13;;;14.30;99.90;;;;;;5050689;28;20968;-86
2021/08/28 01:29:44;;;;;;;6.60;5.90;;;14.30;99.90;;;;;;5035170;28;20218;-86
2021/08/28 01:32:12;;;;;;;8.33;7.43;;;14.30;99.90;;;;;;5050582;28;20460;-86
2021/08/28 01:34:38;;;;;;;8.70;7.27;;;14.20;99.90;;;;;;5050393;28;20424;-85
2021/08/28 01:37:04;;;;;;;7.40;6.70;;;14.20;99.90;;;;;;5052031;28;20514;-87
2021/08/28 01:39:32;;;;;;;7.77;7.00;;;14.20;99.90;;;;;;5050471;28;20455;-86
2021/08/28 01:42:01;;;;;;;7.50;6.40;;;14.20;99.90;;;;;;5048203;28;20428;-85
2021/08/28 01:44:27;;;;;;;9.30;7.10;;;14.20;99.90;;;;;;5051457;28;20412;-86
2021/08/28 01:46:53;;;;;;;8.23;6.67;;;14.20;99.90;;;;;;5048036;28;20431;-86
2021/08/28 01:49:21;;;;;;;6.83;6.20;;;14.30;99.90;;;;;;5052719;28;21102;-86
2021/08/28 01:51:48;;;;;;;9.20;7.20;;;14.20;99.90;;;;;;5054198;28;20926;-87
2021/08/28 01:54:13;;;;;;;10.13;6.60;;;14.20;99.90;;;;;;5054335;28;21061;-87
2021/08/28 01:56:39;;;;;;;7.07;6.37;;;14.20;99.90;;;;;;5053879;28;20523;-87
2021/08/28 01:59:05;;;;;;;7.87;6.57;;;14.30;99.90;;;;;;5054422;28;20174;-87
2021/08/28 02:01:31;;;;;;;10.30;7.00;;;14.30;99.90;;;;;;5053854;28;20186;-87
2021/08/28 02:03:56;;;;;;;7.63;7.03;;;14.30;99.90;;;;;;5054120;28;20193;-88
2021/08/28 02:06:36;;;;;;;7.17;6.20;;;14.30;99.90;;;;;;5053932;28;20533;-88
2021/08/28 02:09:09;;;;;;;6.67;6.07;;;14.30;99.90;;;;;;5055905;28;20197;-86
2021/08/28 02:11:49;;;;;;;7.07;6.37;;;14.30;99.90;;;;;;5051531;28;20456;-87
2021/08/28 02:14:19;;;;;;;7.50;6.80;;;14.30;99.90;;;;;;5054556;28;20501;-87
2021/08/28 02:16:45;;;;;;;7.57;6.43;;;14.30;99.90;;;;;;5051608;28;21057;-86
2021/08/28 02:19:16;;;;;;;7.37;6.67;;;14.30;99.90;;;;;;5054985;28;20934;-85
2021/08/28 02:21:46;;;;;;;8.33;6.07;;;14.30;99.90;;;;;;5055324;28;20512;-88
2021/08/28 02:24:18;;;;;;;7.27;6.20;;;14.30;99.90;;;;;;5056090;28;20419;-88
2021/08/28 02:26:55;;;;;;;7.57;6.70;;;14.30;99.90;;;;;;5056148;28;20413;-90
2021/08/28 02:29:50;;;;;;;6.53;5.87;;;14.30;99.90;;;;;;5056065;28;20461;-90
2021/08/28 02:32:16;;;;;;;7.83;5.87;;;14.30;99.90;;;;;;5053475;28;20500;-88
2021/08/28 02:34:43;;;;;;;6.70;5.67;;;14.30;99.90;;;;;;5054753;28;20473;-89
2021/08/28 02:37:10;;;;;;;6.80;6.10;;;14.30;99.90;;;;;;5054695;28;20431;-88
2021/08/28 02:39:38;;;;;;;9.70;6.37;;;14.30;99.90;;;;;;5054360;28;20507;-89
2021/08/28 02:42:05;;;;;;;7.30;6.30;;;14.20;99.90;;;;;;5052428;28;20986;-90
2021/08/28 02:44:31;;;;;;;6.93;6.23;;;14.30;99.90;;;;;;5053976;28;20421;-88
2021/08/28 02:46:58;;;;;;;6.97;6.10;;;14.30;99.90;;;;;;5054622;28;20920;-88
2021/08/28 02:49:25;;;;;;;7.43;6.57;;;14.20;99.90;;;;;;5054659;28;20828;-90
2021/08/28 02:51:51;;;;;;;11.63;6.63;;;14.30;99.90;;;;;;5053671;28;20912;-89
2021/08/28 02:54:19;;;;;;;10.17;8.60;;;14.30;99.90;;;;;;5054570;28;20465;-89
2021/08/28 02:56:48;;;;;;;7.53;6.77;;;14.30;99.90;;;;;;5054306;28;20488;-89
2021/08/28 02:59:18;;;;;;;11.60;7.27;;;14.30;99.90;;;;;;5054712;28;20872;-91
2021/08/28 03:01:46;;;;;;;9.57;7.47;;;14.30;99.90;;;;;;5044611;28;20937;-92
2021/08/28 03:04:15;;;;;;;8.20;7.40;;;14.30;99.90;;;;;;5034583;28;20441;-91
2021/08/28 03:06:41;;;;;;;10.47;7.00;;;14.30;99.90;;;;;;5035800;28;20413;-92
2021/08/28 03:09:06;;;;;;;9.93;7.97;;;14.30;99.90;;;;;;5034173;28;20474;-90
2021/08/28 03:11:32;;;;;;;11.07;8.47;;;14.40;99.90;;;;;;5035662;28;20162;-90
2021/08/28 03:13:58;;;;;;;9.63;7.67;;;14.30;99.90;;;;;;5034305;28;20689;-89
2021/08/28 03:16:27;;;;;;;11.60;7.60;;;14.30;99.90;;;;;;5034319;28;20167;-90
2021/08/28 03:18:55;;;;;;;12.93;8.83;;;14.30;99.90;;;;;;5034123;28;20306;-89
2021/08/28 03:21:22;;;;;;;13.03;9.20;;;14.30;99.90;;;;;;5034277;28;20433;-90
2021/08/28 03:23:49;;;;;;;11.63;8.43;;;14.30;99.90;;;;;;5035218;28;20418;-89
2021/08/28 03:26:18;;;;;;;9.87;7.97;;;14.30;99.90;;;;;;5034137;28;20422;-90
2021/08/28 03:28:44;;;;;;;13.03;9.03;;;14.40;99.90;;;;;;5035320;28;20538;-89
2021/08/28 03:31:11;;;;;;;16.47;9.27;;;14.30;99.90;;;;;;5033592;28;20429;-89
2021/08/28 03:33:38;;;;;;;11.40;8.57;;;14.30;99.90;;;;;;5035027;28;20416;-89
2021/08/28 03:36:05;;;;;;;10.87;8.50;;;14.30;99.90;;;;;;5033732;28;20933;-89
2021/08/28 03:38:33;;;;;;;10.10;8.80;;;14.30;99.90;;;;;;5035109;28;20422;-90
2021/08/28 03:40:59;;;;;;;10.33;7.93;;;14.30;99.90;;;;;;5033618;28;20517;-89
2021/08/28 03:43:24;;;;;;;10.87;7.87;;;14.30;99.90;;;;;;5033647;28;20445;-90
2021/08/28 03:45:50;;;;;;;10.57;7.37;;;14.30;99.90;;;;;;5033688;28;20214;-90
2021/08/28 03:48:17;;;;;;;12.10;8.87;;;14.30;99.90;;;;;;5033773;28;20181;-89
2021/08/28 03:50:43;;;;;;;13.90;9.30;;;14.20;99.90;;;;;;5035018;28;20495;-90
2021/08/28 03:53:08;;;;;;;9.90;7.70;;;14.30;99.90;;;;;;5033751;28;20413;-90
2021/08/28 03:55:34;;;;;;;10.00;7.93;;;14.30;99.90;;;;;;5053805;28;20206;-90
2021/08/28 03:57:59;;;;;;;11.40;7.53;;;14.30;99.90;;;;;;5053380;28;20185;-88
2021/08/28 04:00:25;;;;;;;9.30;8.00;;;14.30;99.90;;;;;;5053087;28;20181;-88
2021/08/28 04:02:50;;;;;;;12.97;8.00;;;14.30;99.90;;;;;;5053568;28;20181;-89
2021/08/28 04:05:16;;;;;;;10.93;8.73;;;14.30;99.90;;;;;;5054417;28;20170;-89
2021/08/28 04:07:42;;;;;;;13.00;9.93;;;14.20;99.90;;;;;;5054450;28;20324;-90
2021/08/28 04:10:08;;;;;;;10.30;8.70;;;14.20;99.90;;;;;;5053098;28;20225;-89
2021/08/28 04:12:34;;;;;;;15.03;9.87;;;14.20;99.90;;;;;;5052950;28;20268;-90
2021/08/28 04:14:59;;;;;;;10.90;9.33;;;14.20;99.90;;;;;;5052744;28;21034;-90
2021/08/28 04:17:25;;;;;;;13.80;10.70;;;14.20;99.90;;;;;;5054392;28;20416;-89
2021/08/28 04:19:51;;;;;;;9.20;7.77;;;14.20;99.90;;;;;;5054444;28;20261;-89
2021/08/28 04:22:16;;;;;;;12.80;9.40;;;14.20;99.90;;;;;;5054760;28;20173;-89
2021/08/28 04:24:42;;;;;;;9.80;8.53;;;14.20;99.90;;;;;;5052980;28;20184;-89
2021/08/28 04:27:07;;;;;;;11.50;8.30;;;14.20;99.90;;;;;;5053073;28;20166;-89
2021/08/28 04:29:33;;;;;;;10.30;8.23;;;14.20;99.90;;;;;;5053835;28;20213;-88
2021/08/28 04:31:59;;;;;;;7.23;6.50;;;14.20;99.90;;;;;;5053027;28;20179;-88
2021/08/28 04:34:24;;;;;;;8.93;6.90;;;14.20;99.90;;;;;;5053844;28;20178;-89
2021/08/28 04:36:50;;;;;;;8.43;6.83;;;14.20;99.90;;;;;;5055056;28;20183;-89
2021/08/28 04:39:16;;;;;;;10.23;7.60;;;14.20;99.90;;;;;;5055145;28;20594;-89
2021/08/28 04:41:41;;;;;;;7.50;6.80;;;14.20;99.90;;;;;;5059000;28;20169;-91
2021/08/28 04:44:07;;;;;;;6.30;5.33;;;14.30;99.90;;;;;;5060261;28;20167;-89
2021/08/28 04:46:33;;;;;;;8.40;6.27;;;14.20;99.90;;;;;;5061806;28;20435;-91
2021/08/28 04:48:59;;;;;;;7.10;5.90;;;14.20;99.90;;;;;;5063357;28;20286;-89
2021/08/28 04:51:24;;;;;;;6.63;5.03;;;14.20;99.90;;;;;;5065877;28;20231;-92
2021/08/28 04:53:50;;;;;;;7.60;4.73;;;14.20;99.90;;;;;;5062537;28;20244;-91
2021/08/28 04:56:15;;;;;;;7.00;5.10;;;14.20;99.90;;;;;;5056515;28;20644;-90
2021/08/28 04:58:41;;;;;;;6.57;4.23;;;14.30;99.90;;;;;;5055624;28;20172;-90
2021/08/28 05:01:07;;;;;;;8.00;4.10;;;14.30;99.90;;;;;;5052629;28;20264;-90
2021/08/28 05:03:32;;;;;;;4.50;4.10;;;14.30;99.90;;;;;;5052459;28;20197;-89
2021/08/28 05:05:58;;;;;;;6.00;4.10;;;14.30;99.90;;;;;;5052783;28;20220;-90
2021/08/28 05:08:23;;;;;;;5.03;4.00;;;14.20;99.90;;;;;;5052748;28;20182;-90
2021/08/28 05:10:49;;;;;;;4.40;3.23;;;14.30;99.90;;;;;;5052621;28;20187;-90
2021/08/28 05:13:15;;;;;;;4.50;3.37;;;14.30;99.90;;;;;;5053402;28;20241;-88
2021/08/28 05:15:41;;;;;;;4.90;3.23;;;14.40;99.90;;;;;;5052264;28;20424;-90
2021/08/28 05:18:07;;;;;;;4.57;3.10;;;14.30;99.90;;;;;;5052441;28;20769;-90
2021/08/28 05:20:33;;;;;;;4.30;2.50;;;14.30;99.90;;;;;;5053165;28;20181;-88
2021/08/28 05:22:58;;;;;;;3.40;2.50;;;14.30;99.90;;;;;;5053198;28;20170;-88
2021/08/28 05:25:25;;;;;;;4.50;2.77;;;14.30;99.90;;;;;;5055257;28;20162;-88
2021/08/28 05:27:51;;;;;;;3.73;2.50;;;14.20;99.90;;;;;;5056078;28;20182;-88
2021/08/28 05:30:17;;;;;;;2.83;2.10;;;14.20;99.90;;;;;;5056754;28;20463;-88
2021/08/28 05:32:43;;;;;;;3.00;1.93;;;14.20;99.90;;;;;;5057202;28;20415;-88
2021/08/28 05:35:10;;;;;;;3.07;2.50;;;14.20;99.90;;;;;;5056031;28;20183;-88
2021/08/28 05:37:35;;;;;;;5.13;2.90;;;14.20;99.90;;;;;;5055970;28;20416;-89
2021/08/28 05:40:01;;;;;;;2.30;2.10;;;14.20;99.90;;;;;;5057497;28;20516;-88
2021/08/28 05:42:26;;;;;;;3.17;2.10;;;14.20;99.90;;;;;;5057455;28;20532;-89
2021/08/28 05:44:52;;;;;;;2.77;2.37;;;14.20;99.90;;;;;;5055952;28;20311;-88
2021/08/28 05:47:19;;;;;;;2.70;1.60;;;14.30;99.90;;;;;;5055829;28;20180;-88
2021/08/28 05:49:45;;;;;;;3.70;2.47;;;14.20;99.90;;;;;;5056099;28;20550;-88
2021/08/28 05:52:11;;;;;;;2.90;1.90;;;14.40;99.90;;;;;;5055763;28;20417;-90
2021/08/28 05:54:37;;;;;;;3.87;2.40;;;14.40;99.90;;;;;;5056892;28;20517;-89
2021/08/28 05:57:02;;;;;;;4.17;2.70;;;14.40;99.90;;;;;;5056000;28;20174;-89
2021/08/28 05:59:28;;;;;;;4.77;2.50;;;14.50;99.90;;;;;;5057104;28;20182;-90
2021/08/28 06:01:55;;;;;;;5.90;2.03;;;14.40;99.90;;;;;;5057809;28;20177;-88
2021/08/28 06:04:21;;;;;;;4.27;3.17;;;14.40;99.90;;;;;;5057130;28;20163;-88
2021/08/28 06:06:46;;;;;;;5.20;3.00;;;14.50;99.90;;;;;;5055164;28;20459;-89
2021/08/28 06:09:12;;;;;;;7.10;3.80;;;14.50;99.90;;;;;;5055737;28;20980;-89
2021/08/28 06:11:37;;;;;;;7.60;3.67;;;14.50;99.90;;;;;;5056855;28;20169;-90
2021/08/28 06:14:03;;;;;;;6.67;5.07;;;14.50;99.90;;;;;;5055280;28;20231;-88
2021/08/28 06:16:29;;;;;;;7.60;4.93;;;14.60;99.90;;;;;;5057324;28;20528;-88
2021/08/28 06:18:54;;;;;;;7.03;4.90;;;14.60;99.90;;;;;;5056994;28;20170;-91
2021/08/28 06:21:20;;;;;;;6.70;5.33;;;14.60;99.90;;;;;;5056641;28;20286;-89
2021/08/28 06:23:46;;;;;;;6.17;5.57;;;14.70;99.90;;;;;;5056206;28;20268;-90
2021/08/28 06:26:11;;;;;;;6.93;5.63;;;14.70;99.90;;;;;;5055744;28;20170;-87
2021/08/28 06:28:37;;;;;;;8.33;6.27;;;14.70;99.90;;;;;;5056976;28;20305;-88
2021/08/28 06:31:03;;;;;;;7.87;5.73;;;14.80;99.90;;;;;;5055687;28;20183;-90
2021/08/28 06:33:28;;;;;;;9.57;6.83;;;14.80;99.90;;;;;;5056264;28;20173;-90
2021/08/28 06:35:54;;;;;;;10.33;7.90;;;14.80;99.90;;;;;;5056018;28;20535;-92
2021/08/28 06:38:20;;;;;;;9.13;7.30;;;14.80;99.90;;;;;;5056454;28;20202;-90
2021/08/28 06:40:45;;;;;;;7.83;6.20;;;14.90;99.90;;;;;;5055486;28;20421;-90
2021/08/28 06:43:11;;;;;;;10.23;7.63;;;14.90;99.90;;;;;;5055732;28;20216;-89
2021/08/28 06:45:37;;;;;;;8.90;8.03;;;15.00;99.90;;;;;;5055210;28;20175;-91
2021/08/28 06:48:02;;;;;;;12.67;8.40;;;15.00;99.90;;;;;;5055305;28;20543;-90
2021/08/28 06:50:28;;;;;;;12.37;8.27;;;15.00;99.90;;;;;;5055455;28;20220;-89
2021/08/28 06:52:54;;;;;;;10.60;8.40;;;15.10;99.90;;;;;;5056146;28;20216;-89
2021/08/28 06:55:19;;;;;;;9.67;7.60;;;15.20;99.90;;;;;;5056112;28;20632;-90
2021/08/28 06:57:45;;;;;;;8.93;7.97;;;15.50;99.90;;;;;;5055089;28;20211;-89
2021/08/28 07:00:12;;;;;;;13.20;8.40;;;15.70;99.90;;;;;;5055840;28;20184;-90
2021/08/28 07:02:38;;;;;;;10.03;7.87;;;15.80;99.90;;;;;;5055886;28;20318;-90
2021/08/28 07:05:04;;;;;;;9.53;6.50;;;15.80;99.90;;;;;;5056312;28;20419;-89
2021/08/28 07:07:31;;;;;;;8.40;5.30;;;15.70;99.90;;;;;;5062902;28;20438;-89
2021/08/28 07:09:56;;;;;;;9.00;6.77;;;15.70;99.90;;;;;;5066105;28;20473;-92
2021/08/28 07:12:22;;;;;;;10.53;6.00;;;15.60;99.90;;;;;;5064852;28;20425;-92
2021/08/28 07:14:47;;;;;;;11.17;6.47;;;15.60;99.90;;;;;;5071493;28;20235;-92
2021/08/28 07:17:13;;;;;;;7.83;5.67;;;15.60;99.90;;;;;;5075217;28;20210;-93
2021/08/28 07:19:39;;;;;;;6.70;5.53;;;15.60;99.90;;;;;;5067689;28;20176;-92
2021/08/28 07:22:04;;;;;;;7.50;6.33;;;15.70;99.90;;;;;;5055870;28;20202;-94
2021/08/28 07:24:30;;;;;;;7.73;6.00;;;15.80;99.90;;;;;;5054055;28;20262;-90
2021/08/28 07:26:55;;;;;;;9.00;6.37;;;15.80;99.90;;;;;;5053618;28;20518;-90
2021/08/28 07:29:21;;;;;;;7.53;5.43;;;15.80;99.90;;;;;;5053403;28;20205;-90
2021/08/28 07:31:49;;;;;;;7.60;4.90;;;15.80;99.90;;;;;;5053735;28;20641;-90
2021/08/28 07:34:15;;;;;;;5.80;5.20;;;15.70;99.90;;;;;;5053803;28;20218;-91
2021/08/28 07:36:41;;;;;;;7.57;5.47;;;15.60;99.90;;;;;;5046970;28;20440;-93
2021/08/28 07:39:07;;;;;;;6.77;5.33;;;15.70;99.90;;;;;;5055661;28;20414;-91
2021/08/28 07:41:32;;;;;;;5.93;5.17;;;15.70;99.90;;;;;;5058380;28;20173;-93
2021/08/28 07:43:58;;;;;;;7.57;6.53;;;15.70;99.90;;;;;;5059770;28;20188;-95
2021/08/28 07:46:24;;;;;;;6.90;4.90;;;15.70;99.90;;;;;;5056190;28;20225;-93
2021/08/28 07:48:49;;;;;;;8.30;6.00;;;15.70;99.90;;;;;;5055424;28;20468;-93
2021/08/28 07:51:15;;;;;;;6.20;5.50;;;15.70;99.90;;;;;;5056387;28;20230;-94
2021/08/28 07:53:41;;;;;;;8.93;5.83;;;15.80;99.90;;;;;;5061924;28;20191;-94
2021/08/28 07:56:07;;;;;;;9.30;4.77;;;15.80;99.90;;;;;;5062924;28;20184;-94
2021/08/28 07:58:32;;;;;;;4.20;3.47;;;15.80;99.90;;;;;;5055810;28;20180;-87
2021/08/28 08:00:58;;;;;;;9.83;3.73;;;15.90;99.90;;;;;;5052389;28;20225;-85
2021/08/28 08:03:25;;;;;;;5.93;4.93;;;16.50;99.90;;;;;;5052346;28;20166;-85
2021/08/28 08:05:50;;;;;;;8.07;4.73;;;16.30;99.90;;;;;;5049672;28;20568;-85
2021/08/28 08:08:16;;;;;;;7.77;4.33;;;16.30;99.90;;;;;;5050160;28;20410;-84
2021/08/28 08:10:42;;;;;;;5.77;4.80;;;16.30;99.90;;;;;;5051346;28;20262;-85
2021/08/28 08:13:07;;;;;;;5.80;3.90;;;16.20;99.90;;;;;;5051311;28;20178;-85
2021/08/28 08:15:33;;;;;;;5.80;4.07;;;16.30;99.90;;;;;;5057744;28;20183;-85
2021/08/28 08:17:59;;;;;;;6.17;4.30;;;16.40;99.90;;;;;;5061465;28;20177;-85
2021/08/28 08:20:25;;;;;;;5.83;4.37;;;16.50;99.90;;;;;;5060892;28;20202;-85
2021/08/28 08:22:51;;;;;;;4.67;4.23;;;16.60;99.90;;;;;;5061844;28;20202;-85
2021/08/28 08:25:17;;;;;;;7.27;4.13;;;16.70;99.90;;;;;;5064039;28;20429;-85
2021/08/28 08:27:43;;;;;;;7.30;4.90;;;16.90;99.90;;;;;;5061086;28;20462;-86
2021/08/28 08:30:09;;;;;;;4.53;4.07;;;17.00;99.90;;;;;;5057348;28;20464;-86
2021/08/28 08:32:35;;;;;;;6.13;4.37;;;16.90;99.90;;;;;;5051241;28;20448;-86
2021/08/28 08:35:01;;;;;;;6.10;4.43;;;16.70;99.90;;;;;;5066977;28;20827;-85
2021/08/28 08:37:27;;;;;;;5.23;4.73;;;16.60;99.90;;;;;;5062150;28;20174;-85
2021/08/28 08:39:52;;;;;;;5.07;3.47;;;16.50;99.90;;;;;;5063798;28;20437;-85
2021/08/28 08:42:22;;;;;;;6.40;4.17;;;16.60;99.90;;;;;;5062041;28;20405;-86
2021/08/28 08:44:48;;;;;;;6.23;3.57;;;16.60;99.90;;;;;;5058916;28;20630;-88
2021/08/28 08:47:15;;;;;;;4.50;3.80;;;16.60;99.90;;;;;;5053053;28;20963;-86
2021/08/28 08:49:42;;;;;;;5.77;3.17;;;16.50;99.90;;;;;;5069050;28;20482;-86
2021/08/28 08:52:08;;;;;;;4.43;3.20;;;16.70;99.90;;;;;;5073069;28;20405;-86
2021/08/28 08:54:35;;;;;;;3.13;2.67;;;16.50;99.90;;;;;;5070015;28;20911;-86
2021/08/28 08:57:01;;;;;;;6.23;3.20;;;16.70;99.90;;;;;;5070521;28;20418;-86
2021/08/28 08:59:28;;;;;;;4.43;2.87;;;17.00;99.90;;;;;;5062327;28;20508;-86
2021/08/28 09:01:54;;;;;;;3.30;2.50;;;17.10;99.90;;;;;;5056817;28;20430;-91
2021/08/28 09:04:19;;;;;;;3.07;2.40;;;17.50;99.90;;;;;;5056961;28;20428;-86
2021/08/28 09:06:46;;;;;;;6.50;3.20;;;17.60;99.90;;;;;;5063380;28;20699;-85
2021/08/28 09:09:13;;;;;;;4.60;2.30;;;17.60;99.90;;;;;;5060436;28;20342;-87
2021/08/28 09:11:55;;;;;;;3.77;2.40;;;18.30;99.90;;;;;;5061372;28;20415;-85
2021/08/28 09:14:22;;;;;;;3.63;1.60;;;19.40;99.90;;;;;;5061765;28;20458;-86
2021/08/28 09:16:50;;;;;;;3.30;2.03;;;19.90;99.90;;;;;;5063825;28;20425;-87
2021/08/28 09:19:16;;;;;;;3.07;1.83;;;19.70;99.90;;;;;;5061161;28;20506;-86
2021/08/28 09:21:42;;;;;;;3.43;1.30;;;19.50;99.90;;;;;;5062585;28;20419;-86
2021/08/28 09:24:11;;;;;;;1.60;1.23;;;19.00;99.90;;;;;;5060627;28;20423;-87
2021/08/28 09:26:43;;;;;;;2.63;1.23;;;19.20;99.90;;;;;;5063001;28;20428;-87
2021/08/28 09:29:11;;;;;;;1.87;1.53;;;19.20;99.90;;;;;;5060287;28;20448;-87
2021/08/28 09:31:48;;;;;;;2.10;0.87;;;19.20;99.90;;;;;;5061259;28;20485;-88
2021/08/28 09:34:30;;;;;;;1.73;0.90;;;20.10;99.90;;;;;;5060188;28;20418;-87
2021/08/28 09:37:01;;;;;;;1.67;0.60;;;20.60;99.90;;;;;;5058413;28;20426;-87
2021/08/28 09:39:40;;;;;;;1.53;0.90;;;19.70;99.90;;;;;;5055284;28;20433;-84
2021/08/28 09:42:08;;;;;;;2.03;0.50;;;19.00;99.90;;;;;;5057628;28;20425;-85
2021/08/28 09:44:39;;;;;;;1.20;0.60;;;19.00;99.90;;;;;;5059627;28;20415;-85
2021/08/28 09:47:15;;;;;;;2.10;0.70;;;19.00;99.90;;;;;;5056754;28;20428;-86
2021/08/28 09:49:49;;;;;;;1.13;0.53;;;19.10;99.90;;;;;;5058637;28;20457;-86
2021/08/28 09:52:22;;;;;;;1.87;0.87;;;18.90;99.90;;;;;;5060724;28;20447;-87
2021/08/28 09:54:48;;;;;;;1.33;0.70;;;18.90;99.90;;;;;;5057802;28;21119;-84
2021/08/28 09:57:14;;;;;;;1.57;0.80;;;18.90;99.90;;;;;;5060040;28;20519;-85
2021/08/28 09:59:42;;;;;;;2.50;0.80;;;18.90;99.90;;;;;;5059037;28;20478;-87
2021/08/28 10:02:15;;;;;;;1.43;0.70;;;19.00;99.90;;;;;;5054531;28;20213;-85
2021/08/28 10:04:53;;;;;;;1.10;0.37;;;18.80;99.90;;;;;;5068755;28;20412;-88
2021/08/28 10:07:30;;;;;;;1.17;0.50;;;19.20;99.90;;;;;;5069792;28;20457;-87
2021/08/28 10:10:06;;;;;;;0.83;0.40;;;19.40;99.90;;;;;;5072763;28;20455;-85
2021/08/28 10:12:34;;;;;;;2.57;0.57;;;19.60;99.90;;;;;;5075871;28;20919;-87
2021/08/28 10:15:02;;;;;;;2.43;0.40;;;19.60;99.90;;;;;;5074013;28;20543;-88
2021/08/28 10:17:29;;;;;;;1.17;0.63;;;18.90;99.90;;;;;;5074463;28;20417;-88
2021/08/28 10:19:55;;;;;;;1.10;0.33;;;18.40;99.90;;;;;;5075596;28;20754;-88
2021/08/28 10:22:24;;;;;;;0.73;0.30;;;18.00;99.90;;;;;;5075486;28;20497;-86
2021/08/28 10:24:54;;;;;;;2.90;0.43;;;17.90;99.90;;;;;;5075401;28;21022;-86
2021/08/28 10:27:22;;;;;;;0.70;0.20;;;18.30;99.90;;;;;;5075512;28;20931;-87
2021/08/28 10:29:48;;;;;;;0.80;0.40;;;18.90;99.90;;;;;;5074963;28;20470;-87
2021/08/28 10:32:14;;;;;;;2.07;0.20;;;18.70;99.90;;;;;;5074123;28;20404;-87
2021/08/28 10:34:40;;;;;;;0.80;0.30;;;18.30;99.90;;;;;;5075345;28;20449;-87
2021/08/28 10:37:06;;;;;;;1.03;0.47;;;18.00;99.90;;;;;;5075461;28;20827;-87
2021/08/28 10:39:33;;;;;;;1.37;0.20;;;17.80;99.90;;;;;;5075355;28;20418;-86
2021/08/28 10:41:59;;;;;;;0.93;0.20;;;17.50;99.90;;;;;;5074181;28;20188;-86
2021/08/28 10:44:25;;;;;;;1.00;0.20;;;17.50;99.90;;;;;;5074829;28;20414;-87
2021/08/28 10:46:51;;;;;;;1.53;0.63;;;17.70;99.90;;;;;;5075072;28;20778;-86
2021/08/28 10:49:20;;;;;;;0.70;0.40;;;17.90;99.90;;;;;;5073831;28;20206;-87
2021/08/28 10:51:45;;;;;;;1.53;0.60;;;18.00;99.90;;;;;;5075056;28;20183;-87
2021/08/28 10:54:13;;;;;;;2.23;0.40;;;17.80;99.90;;;;;;5073689;28;20434;-87
2021/08/28 10:56:46;;;;;;;4.00;0.80;;;17.60;99.90;;;;;;5074924;28;20179;-86
2021/08/28 10:59:34;;;;;;;1.37;0.60;;;17.50;99.90;;;;;;5074434;28;20418;-86
2021/08/28 11:02:07;;;;;;;1.43;0.60;;;17.20;99.90;;;;;;5074942;28;20777;-86
2021/08/28 11:04:34;;;;;;;2.10;0.67;;;17.20;99.90;;;;;;5074984;28;20917;-87
2021/08/28 11:07:25;;;;;;;2.13;0.73;;;17.60;99.90;;;;;;5073599;28;20422;-86
2021/08/28 11:10:01;;;;;;;1.53;0.37;;;17.80;99.90;;;;;;5073490;28;20485;-86
2021/08/28 11:12:27;;;;;;;1.33;0.50;;;18.10;99.90;;;;;;5074567;28;20424;-87
2021/08/28 11:14:52;;;;;;;2.90;0.63;;;18.20;99.90;;;;;;5074072;28;20458;-87
2021/08/28 11:17:34;;;;;;;2.93;0.70;;;18.00;99.90;;;;;;5074590;28;20172;-87
2021/08/28 11:20:01;;;;;;;2.20;0.67;;;17.70;99.90;;;;;;5073417;28;20171;-86
2021/08/28 11:22:36;;;;;;;1.10;0.90;;;17.70;99.90;;;;;;5072166;28;20461;-87
2021/08/28 11:25:05;;;;;;;1.70;0.80;;;17.80;99.90;;;;;;5074458;28;20406;-86
2021/08/28 11:27:45;;;;;;;3.07;0.70;;;17.80;99.90;;;;;;5074290;28;20427;-86
2021/08/28 11:30:13;;;;;;;1.67;0.70;;;17.60;99.90;;;;;;5073756;28;20474;-86
2021/08/28 11:32:39;;;;;;;2.23;0.93;;;17.60;99.90;;;;;;5074158;28;20415;-86
2021/08/28 11:35:05;;;;;;;1.40;0.53;;;17.50;99.90;;;;;;5078543;28;20528;-84
2021/08/28 11:37:31;;;;;;;0.90;0.47;;;17.50;99.90;;;;;;5075866;28;20566;-87
2021/08/28 11:39:59;;;;;;;1.43;1.17;;;17.50;99.90;;;;;;5080613;28;20513;-86
2021/08/28 11:42:29;;;;;;;1.93;0.60;;;17.50;99.90;;;;;;5078942;28;20172;-87
2021/08/28 11:44:56;;;;;;;1.97;0.30;;;18.10;99.90;;;;;;5074334;28;20418;-88
2021/08/28 11:47:23;;;;;;;1.30;0.40;;;18.40;99.90;;;;;;5074482;28;20505;-86
2021/08/28 11:49:53;;;;;;;2.03;0.40;;;18.30;99.90;;;;;;5073983;28;20464;-87
2021/08/28 11:52:19;;;;;;;1.23;0.70;;;18.30;99.90;;;;;;5074074;28;20425;-87
2021/08/28 11:54:46;;;;;;;1.40;0.43;;;18.30;99.90;;;;;;5074138;28;20403;-86
2021/08/28 11:57:12;;;;;;;1.30;0.30;;;18.40;99.90;;;;;;5073085;28;20826;-86
2021/08/28 11:59:39;;;;;;;0.70;0.20;;;18.40;99.90;;;;;;5074325;28;20403;-86
2021/08/28 12:02:06;;;;;;;0.70;0.40;;;18.20;99.90;;;;;;5075549;28;20813;-86
2021/08/28 12:04:36;;;;;;;1.07;0.37;;;18.10;99.90;;;;;;5075113;28;20399;-92
2021/08/28 12:07:04;;;;;;;2.33;0.50;;;18.20;99.90;;;;;;5073498;28;20422;-86
2021/08/28 12:09:29;;;;;;;1.37;0.40;;;18.10;99.90;;;;;;5074802;28;20470;-86
2021/08/28 12:11:56;;;;;;;0.50;0.20;;;18.20;99.90;;;;;;5073096;28;20925;-86
2021/08/28 12:14:26;;;;;;;1.37;0.43;;;18.00;99.90;;;;;;5073110;28;20227;-87
2021/08/28 12:16:53;;;;;;;0.60;0.30;;;17.70;99.90;;;;;;5072348;28;20806;-88
2021/08/28 12:19:21;;;;;;;1.37;0.60;;;17.60;99.90;;;;;;5073318;28;20419;-87
2021/08/28 12:21:54;;;;;;;2.77;0.40;;;17.70;99.90;;;;;;5073289;28;20447;-87
2021/08/28 12:24:37;;;;;;;0.97;0.40;;;17.90;99.90;;;;;;5073316;28;20928;-87
2021/08/28 12:27:07;;;;;;;11.23;1.20;;;18.10;99.90;;;;;;5073371;28;20418;-86
2021/08/28 12:29:36;;;;;;;1.10;0.47;;;17.90;99.90;;;;;;5071327;28;20500;-87
2021/08/28 12:32:05;;;;;;;2.63;0.30;;;18.00;99.90;;;;;;5073412;28;20444;-87
2021/08/28 12:34:32;;;;;;;2.23;0.30;;;18.00;99.90;;;;;;5071632;28;20481;-88
2021/08/28 12:37:03;;;;;;;2.00;0.40;;;18.00;99.90;;;;;;5073353;28;20437;-86
2021/08/28 12:39:30;;;;;;;1.37;0.30;;;17.90;99.90;;;;;;5073464;28;20418;-87
2021/08/28 12:41:57;;;;;;;0.83;0.20;;;17.80;99.90;;;;;;5072177;28;20477;-87
2021/08/28 12:44:25;;;;;;;0.53;0.20;;;17.80;99.90;;;;;;5072771;28;20451;-87
2021/08/28 12:46:52;;;;;;;0.90;0.20;;;17.80;99.90;;;;;;5071754;28;20860;-87
2021/08/28 12:49:23;;;;;;;1.63;0.20;;;17.90;99.90;;;;;;5072932;28;20458;-87